Tributaries of Morava river

Břeclav-Ladná (Thaya)

Date and time (UTC) H (cm) Q (m³/s)
20. 6. 2024 15:00 34 21.8
20. 6. 2024 14:00 34 22
20. 6. 2024 13:00 32 21
20. 6. 2024 12:00 33 21
20. 6. 2024 11:00 28 19
20. 6. 2024 10:00 28 19
20. 6. 2024 09:00 31 20
20. 6. 2024 08:00 28 19
20. 6. 2024 07:00 25 17
20. 6. 2024 06:00 27 18
20. 6. 2024 05:00 26 18
20. 6. 2024 04:00 27 18
20. 6. 2024 03:00 26 18

H - water level, Q - discharge

Dluhonice (Bečva)

Date and time (UTC) H (cm) Q (m³/s)
20. 6. 2024 15:00 130 9
20. 6. 2024 14:00 131 9
20. 6. 2024 13:00 131 9
20. 6. 2024 12:00 131 9
20. 6. 2024 11:00 130 9
20. 6. 2024 10:00 130 9
20. 6. 2024 09:00 130 9
20. 6. 2024 08:00 130 9
20. 6. 2024 07:00 131 9
20. 6. 2024 06:00 130 9
20. 6. 2024 05:00 130 9
20. 6. 2024 04:00 129 9
20. 6. 2024 03:00 130 9

H - water level, Q - discharge
Source data
Labe Basin Vltava Basin Povodí Moravy ČHMÚ
Po vodě ekologicky, levně a v pohodě
backgroung on backgroung off